sensor_id;sensor_type;location;lat;lon;timestamp;P1;durP1;ratioP1;P2;durP2;ratioP2
23179;SDS011;11758;45.756;11.432;2022-12-07T00:01:09;2.50;;;1.90;;
23179;SDS011;11758;45.756;11.432;2022-12-07T00:03:36;1.92;;;1.80;;
23179;SDS011;11758;45.756;11.432;2022-12-07T00:06:03;1.73;;;1.63;;
23179;SDS011;11758;45.756;11.432;2022-12-07T00:08:30;2.58;;;2.38;;
23179;SDS011;11758;45.756;11.432;2022-12-07T00:11:00;2.00;;;1.90;;
23179;SDS011;11758;45.756;11.432;2022-12-07T00:13:26;1.50;;;1.40;;
23179;SDS011;11758;45.756;11.432;2022-12-07T00:15:52;1.90;;;1.80;;
23179;SDS011;11758;45.756;11.432;2022-12-07T00:18:18;3.15;;;2.20;;
23179;SDS011;11758;45.756;11.432;2022-12-07T00:20:45;2.20;;;2.08;;
23179;SDS011;11758;45.756;11.432;2022-12-07T00:23:11;4.55;;;2.65;;
23179;SDS011;11758;45.756;11.432;2022-12-07T00:25:37;3.10;;;2.78;;
23179;SDS011;11758;45.756;11.432;2022-12-07T00:28:03;4.60;;;2.75;;
23179;SDS011;11758;45.756;11.432;2022-12-07T00:30:29;7.05;;;3.25;;
23179;SDS011;11758;45.756;11.432;2022-12-07T00:32:55;3.75;;;3.13;;
23179;SDS011;11758;45.756;11.432;2022-12-07T00:35:22;4.67;;;2.77;;
23179;SDS011;11758;45.756;11.432;2022-12-07T00:37:48;3.22;;;2.80;;
23179;SDS011;11758;45.756;11.432;2022-12-07T00:40:14;5.88;;;3.15;;
23179;SDS011;11758;45.756;11.432;2022-12-07T00:42:40;3.53;;;3.10;;
23179;SDS011;11758;45.756;11.432;2022-12-07T00:45:06;2.30;;;2.20;;
23179;SDS011;11758;45.756;11.432;2022-12-07T00:47:33;2.40;;;2.20;;
23179;SDS011;11758;45.756;11.432;2022-12-07T00:49:59;3.00;;;2.10;;
23179;SDS011;11758;45.756;11.432;2022-12-07T00:52:25;2.05;;;1.95;;
23179;SDS011;11758;45.756;11.432;2022-12-07T00:57:30;7.80;;;2.70;;
23179;SDS011;11758;45.756;11.432;2022-12-07T00:59:57;1.85;;;1.75;;
23179;SDS011;11758;45.756;11.432;2022-12-07T01:02:24;1.30;;;1.30;;
23179;SDS011;11758;45.756;11.432;2022-12-07T01:04:50;1.20;;;1.20;;
23179;SDS011;11758;45.756;11.432;2022-12-07T01:07:16;3.75;;;2.03;;
23179;SDS011;11758;45.756;11.432;2022-12-07T01:09:42;1.65;;;1.63;;
23179;SDS011;11758;45.756;11.432;2022-12-07T01:12:08;4.10;;;2.30;;
23179;SDS011;11758;45.756;11.432;2022-12-07T01:14:34;2.30;;;2.20;;
23179;SDS011;11758;45.756;11.432;2022-12-07T01:17:00;2.90;;;2.65;;
23179;SDS011;11758;45.756;11.432;2022-12-07T01:19:27;2.13;;;1.90;;
23179;SDS011;11758;45.756;11.432;2022-12-07T01:22:02;2.23;;;2.13;;
23179;SDS011;11758;45.756;11.432;2022-12-07T01:24:37;2.45;;;2.28;;
23179;SDS011;11758;45.756;11.432;2022-12-07T01:27:03;3.13;;;2.83;;
23179;SDS011;11758;45.756;11.432;2022-12-07T01:29:32;3.42;;;2.63;;
23179;SDS011;11758;45.756;11.432;2022-12-07T01:32:06;4.72;;;3.00;;
23179;SDS011;11758;45.756;11.432;2022-12-07T01:34:33;3.70;;;2.90;;
23179;SDS011;11758;45.756;11.432;2022-12-07T01:37:03;3.10;;;2.83;;
23179;SDS011;11758;45.756;11.432;2022-12-07T01:39:30;4.00;;;2.67;;
23179;SDS011;11758;45.756;11.432;2022-12-07T01:41:56;5.22;;;2.75;;
23179;SDS011;11758;45.756;11.432;2022-12-07T01:46:49;2.50;;;2.30;;
23179;SDS011;11758;45.756;11.432;2022-12-07T01:52:03;3.45;;;3.22;;
23179;SDS011;11758;45.756;11.432;2022-12-07T01:54:30;6.57;;;3.08;;
23179;SDS011;11758;45.756;11.432;2022-12-07T01:56:56;5.80;;;4.10;;
23179;SDS011;11758;45.756;11.432;2022-12-07T01:59:23;4.30;;;3.20;;
23179;SDS011;11758;45.756;11.432;2022-12-07T02:01:51;4.83;;;3.10;;
23179;SDS011;11758;45.756;11.432;2022-12-07T02:04:18;3.30;;;3.00;;
23179;SDS011;11758;45.756;11.432;2022-12-07T02:06:44;2.30;;;2.20;;
23179;SDS011;11758;45.756;11.432;2022-12-07T02:09:11;2.50;;;2.28;;
23179;SDS011;11758;45.756;11.432;2022-12-07T02:11:37;2.50;;;2.10;;
23179;SDS011;11758;45.756;11.432;2022-12-07T02:14:04;2.03;;;1.90;;
23179;SDS011;11758;45.756;11.432;2022-12-07T02:27:21;2.30;;;2.10;;
23179;SDS011;11758;45.756;11.432;2022-12-07T02:29:58;2.90;;;2.00;;
23179;SDS011;11758;45.756;11.432;2022-12-07T02:32:27;2.60;;;1.83;;
23179;SDS011;11758;45.756;11.432;2022-12-07T02:34:59;2.22;;;2.13;;
23179;SDS011;11758;45.756;11.432;2022-12-07T02:40:22;2.43;;;2.23;;
23179;SDS011;11758;45.756;11.432;2022-12-07T02:42:51;3.92;;;2.10;;
23179;SDS011;11758;45.756;11.432;2022-12-07T02:45:18;9.73;;;1.67;;
23179;SDS011;11758;45.756;11.432;2022-12-07T02:47:47;3.03;;;1.77;;
23179;SDS011;11758;45.756;11.432;2022-12-07T02:50:14;2.40;;;2.20;;
23179;SDS011;11758;45.756;11.432;2022-12-07T02:52:42;2.77;;;2.50;;
23179;SDS011;11758;45.756;11.432;2022-12-07T02:55:09;2.67;;;2.47;;
23179;SDS011;11758;45.756;11.432;2022-12-07T03:00:20;2.80;;;2.30;;
23179;SDS011;11758;45.756;11.432;2022-12-07T03:05:15;3.10;;;2.67;;
23179;SDS011;11758;45.756;11.432;2022-12-07T03:15:35;3.95;;;2.60;;
23179;SDS011;11758;45.756;11.432;2022-12-07T03:18:04;3.17;;;2.87;;
23179;SDS011;11758;45.756;11.432;2022-12-07T03:20:31;2.40;;;2.20;;
23179;SDS011;11758;45.756;11.432;2022-12-07T03:22:58;4.03;;;2.63;;
23179;SDS011;11758;45.756;11.432;2022-12-07T03:25:25;2.08;;;1.88;;
23179;SDS011;11758;45.756;11.432;2022-12-07T03:27:59;2.60;;;2.40;;
23179;SDS011;11758;45.756;11.432;2022-12-07T03:30:31;1.93;;;1.80;;
23179;SDS011;11758;45.756;11.432;2022-12-07T03:37:59;2.00;;;1.90;;
23179;SDS011;11758;45.756;11.432;2022-12-07T03:40:29;2.00;;;1.90;;
23179;SDS011;11758;45.756;11.432;2022-12-07T03:42:56;2.00;;;1.83;;
23179;SDS011;11758;45.756;11.432;2022-12-07T03:45:26;2.40;;;2.27;;
23179;SDS011;11758;45.756;11.432;2022-12-07T03:47:59;2.53;;;1.90;;
23179;SDS011;11758;45.756;11.432;2022-12-07T03:53:05;3.77;;;2.00;;
23179;SDS011;11758;45.756;11.432;2022-12-07T03:55:32;4.70;;;1.87;;
23179;SDS011;11758;45.756;11.432;2022-12-07T03:58:04;3.03;;;1.97;;
23179;SDS011;11758;45.756;11.432;2022-12-07T04:00:32;2.00;;;1.90;;
23179;SDS011;11758;45.756;11.432;2022-12-07T04:02:58;1.83;;;1.73;;
23179;SDS011;11758;45.756;11.432;2022-12-07T04:05:24;2.20;;;2.10;;
23179;SDS011;11758;45.756;11.432;2022-12-07T04:07:51;3.13;;;2.83;;
23179;SDS011;11758;45.756;11.432;2022-12-07T04:10:17;2.97;;;2.67;;
23179;SDS011;11758;45.756;11.432;2022-12-07T04:12:43;1.90;;;1.80;;
23179;SDS011;11758;45.756;11.432;2022-12-07T04:15:10;2.27;;;1.70;;
23179;SDS011;11758;45.756;11.432;2022-12-07T04:17:36;3.50;;;2.60;;
23179;SDS011;11758;45.756;11.432;2022-12-07T04:20:02;2.97;;;2.70;;
23179;SDS011;11758;45.756;11.432;2022-12-07T04:22:29;1.90;;;1.80;;
23179;SDS011;11758;45.756;11.432;2022-12-07T04:24:55;2.00;;;1.90;;
23179;SDS011;11758;45.756;11.432;2022-12-07T04:27:21;2.20;;;2.00;;
23179;SDS011;11758;45.756;11.432;2022-12-07T04:29:47;1.87;;;1.70;;
23179;SDS011;11758;45.756;11.432;2022-12-07T04:32:13;2.20;;;2.07;;
23179;SDS011;11758;45.756;11.432;2022-12-07T04:34:39;5.13;;;2.33;;
23179;SDS011;11758;45.756;11.432;2022-12-07T04:37:05;2.37;;;2.17;;
23179;SDS011;11758;45.756;11.432;2022-12-07T04:39:32;4.13;;;2.33;;
23179;SDS011;11758;45.756;11.432;2022-12-07T04:41:59;3.13;;;2.53;;
23179;SDS011;11758;45.756;11.432;2022-12-07T04:44:25;1.90;;;1.80;;
23179;SDS011;11758;45.756;11.432;2022-12-07T04:46:52;3.00;;;1.90;;
23179;SDS011;11758;45.756;11.432;2022-12-07T04:49:18;3.23;;;1.87;;
23179;SDS011;11758;45.756;11.432;2022-12-07T04:51:44;3.80;;;2.37;;
23179;SDS011;11758;45.756;11.432;2022-12-07T04:54:11;4.63;;;2.13;;
23179;SDS011;11758;45.756;11.432;2022-12-07T04:56:37;2.13;;;2.03;;
23179;SDS011;11758;45.756;11.432;2022-12-07T04:59:04;3.97;;;2.20;;
23179;SDS011;11758;45.756;11.432;2022-12-07T05:01:30;3.00;;;2.40;;
23179;SDS011;11758;45.756;11.432;2022-12-07T05:03:56;1.97;;;1.83;;
23179;SDS011;11758;45.756;11.432;2022-12-07T05:06:23;2.23;;;2.03;;
23179;SDS011;11758;45.756;11.432;2022-12-07T05:08:49;3.00;;;1.97;;
23179;SDS011;11758;45.756;11.432;2022-12-07T05:11:15;2.10;;;1.90;;
23179;SDS011;11758;45.756;11.432;2022-12-07T05:14:00;1.70;;;1.60;;
23179;SDS011;11758;45.756;11.432;2022-12-07T05:16:26;2.20;;;2.10;;
23179;SDS011;11758;45.756;11.432;2022-12-07T05:18:53;2.10;;;2.00;;
23179;SDS011;11758;45.756;11.432;2022-12-07T05:21:19;6.10;;;3.07;;
23179;SDS011;11758;45.756;11.432;2022-12-07T05:23:45;8.47;;;5.47;;
23179;SDS011;11758;45.756;11.432;2022-12-07T05:26:11;17.97;;;8.73;;
23179;SDS011;11758;45.756;11.432;2022-12-07T05:28:37;6.73;;;4.60;;
23179;SDS011;11758;45.756;11.432;2022-12-07T05:31:03;4.80;;;3.90;;
23179;SDS011;11758;45.756;11.432;2022-12-07T05:33:30;6.43;;;4.40;;
23179;SDS011;11758;45.756;11.432;2022-12-07T05:35:56;4.13;;;3.10;;
23179;SDS011;11758;45.756;11.432;2022-12-07T05:38:22;4.63;;;2.53;;
23179;SDS011;11758;45.756;11.432;2022-12-07T05:40:48;2.00;;;1.90;;
23179;SDS011;11758;45.756;11.432;2022-12-07T05:43:14;1.80;;;1.70;;
23179;SDS011;11758;45.756;11.432;2022-12-07T05:45:40;1.80;;;1.63;;
23179;SDS011;11758;45.756;11.432;2022-12-07T05:48:06;3.37;;;2.00;;
23179;SDS011;11758;45.756;11.432;2022-12-07T05:50:32;1.90;;;1.80;;
23179;SDS011;11758;45.756;11.432;2022-12-07T05:52:58;3.40;;;1.70;;
23179;SDS011;11758;45.756;11.432;2022-12-07T05:55:25;2.17;;;1.97;;
23179;SDS011;11758;45.756;11.432;2022-12-07T05:57:51;1.70;;;1.60;;
23179;SDS011;11758;45.756;11.432;2022-12-07T06:00:35;1.70;;;1.57;;
23179;SDS011;11758;45.756;11.432;2022-12-07T06:03:01;1.67;;;1.53;;
23179;SDS011;11758;45.756;11.432;2022-12-07T06:05:27;3.30;;;1.50;;
23179;SDS011;11758;45.756;11.432;2022-12-07T06:07:54;12.33;;;1.40;;
23179;SDS011;11758;45.756;11.432;2022-12-07T06:10:20;10.57;;;2.97;;
23179;SDS011;11758;45.756;11.432;2022-12-07T06:12:46;6.40;;;1.70;;
23179;SDS011;11758;45.756;11.432;2022-12-07T06:15:12;1.20;;;1.20;;
23179;SDS011;11758;45.756;11.432;2022-12-07T06:17:39;1.30;;;1.20;;
23179;SDS011;11758;45.756;11.432;2022-12-07T06:20:07;1.33;;;1.10;;
23179;SDS011;11758;45.756;11.432;2022-12-07T06:22:35;1.33;;;1.33;;
23179;SDS011;11758;45.756;11.432;2022-12-07T06:25:01;1.30;;;1.20;;
23179;SDS011;11758;45.756;11.432;2022-12-07T06:27:29;1.23;;;1.13;;
23179;SDS011;11758;45.756;11.432;2022-12-07T06:29:55;0.90;;;0.90;;
23179;SDS011;11758;45.756;11.432;2022-12-07T06:32:21;1.03;;;1.03;;
23179;SDS011;11758;45.756;11.432;2022-12-07T06:34:47;6.90;;;1.20;;
23179;SDS011;11758;45.756;11.432;2022-12-07T06:37:13;2.53;;;1.30;;
23179;SDS011;11758;45.756;11.432;2022-12-07T06:39:39;1.58;;;1.48;;
23179;SDS011;11758;45.756;11.432;2022-12-07T06:42:05;6.43;;;1.70;;
23179;SDS011;11758;45.756;11.432;2022-12-07T06:44:32;4.03;;;1.43;;
23179;SDS011;11758;45.756;11.432;2022-12-07T06:46:58;2.70;;;1.83;;
23179;SDS011;11758;45.756;11.432;2022-12-07T06:49:24;6.80;;;1.80;;
23179;SDS011;11758;45.756;11.432;2022-12-07T06:51:51;12.77;;;2.20;;
23179;SDS011;11758;45.756;11.432;2022-12-07T06:54:17;4.90;;;1.83;;
23179;SDS011;11758;45.756;11.432;2022-12-07T06:56:43;2.97;;;2.50;;
23179;SDS011;11758;45.756;11.432;2022-12-07T06:59:09;3.10;;;2.60;;
23179;SDS011;11758;45.756;11.432;2022-12-07T07:01:36;2.63;;;2.10;;
23179;SDS011;11758;45.756;11.432;2022-12-07T07:04:02;2.25;;;1.88;;
23179;SDS011;11758;45.756;11.432;2022-12-07T07:06:28;13.25;;;5.15;;
23179;SDS011;11758;45.756;11.432;2022-12-07T07:08:55;5.13;;;2.97;;
23179;SDS011;11758;45.756;11.432;2022-12-07T07:11:21;10.43;;;4.90;;
23179;SDS011;11758;45.756;11.432;2022-12-07T07:13:47;13.53;;;8.20;;
23179;SDS011;11758;45.756;11.432;2022-12-07T07:16:13;10.83;;;6.27;;
23179;SDS011;11758;45.756;11.432;2022-12-07T07:18:39;3.90;;;3.00;;
23179;SDS011;11758;45.756;11.432;2022-12-07T07:21:06;2.43;;;2.33;;
23179;SDS011;11758;45.756;11.432;2022-12-07T07:23:33;10.43;;;7.00;;
23179;SDS011;11758;45.756;11.432;2022-12-07T07:26:04;7.43;;;6.00;;
23179;SDS011;11758;45.756;11.432;2022-12-07T07:28:33;10.53;;;5.90;;
23179;SDS011;11758;45.756;11.432;2022-12-07T07:31:03;12.80;;;4.03;;
23179;SDS011;11758;45.756;11.432;2022-12-07T07:36:19;9.30;;;5.93;;
23179;SDS011;11758;45.756;11.432;2022-12-07T07:38:56;15.43;;;6.60;;
23179;SDS011;11758;45.756;11.432;2022-12-07T07:41:22;30.90;;;9.50;;
23179;SDS011;11758;45.756;11.432;2022-12-07T07:43:48;19.87;;;10.47;;
23179;SDS011;11758;45.756;11.432;2022-12-07T07:46:14;19.97;;;9.47;;
23179;SDS011;11758;45.756;11.432;2022-12-07T07:48:40;20.97;;;9.60;;
23179;SDS011;11758;45.756;11.432;2022-12-07T07:51:07;19.27;;;9.37;;
23179;SDS011;11758;45.756;11.432;2022-12-07T07:53:33;20.80;;;10.13;;
23179;SDS011;11758;45.756;11.432;2022-12-07T07:56:02;23.63;;;11.87;;
23179;SDS011;11758;45.756;11.432;2022-12-07T07:58:35;28.40;;;11.50;;
23179;SDS011;11758;45.756;11.432;2022-12-07T08:01:04;20.40;;;9.57;;
23179;SDS011;11758;45.756;11.432;2022-12-07T08:03:30;18.87;;;8.90;;
23179;SDS011;11758;45.756;11.432;2022-12-07T08:05:57;14.17;;;8.80;;
23179;SDS011;11758;45.756;11.432;2022-12-07T08:08:23;14.13;;;7.67;;
23179;SDS011;11758;45.756;11.432;2022-12-07T08:10:49;12.30;;;6.70;;
23179;SDS011;11758;45.756;11.432;2022-12-07T08:13:16;12.47;;;7.13;;
23179;SDS011;11758;45.756;11.432;2022-12-07T08:15:43;20.10;;;7.60;;
23179;SDS011;11758;45.756;11.432;2022-12-07T08:18:09;12.37;;;6.43;;
23179;SDS011;11758;45.756;11.432;2022-12-07T08:20:36;13.10;;;7.00;;
23179;SDS011;11758;45.756;11.432;2022-12-07T08:23:03;8.23;;;6.20;;
23179;SDS011;11758;45.756;11.432;2022-12-07T08:25:29;10.68;;;6.28;;
23179;SDS011;11758;45.756;11.432;2022-12-07T08:27:55;12.73;;;6.60;;
23179;SDS011;11758;45.756;11.432;2022-12-07T08:30:21;12.53;;;6.37;;
23179;SDS011;11758;45.756;11.432;2022-12-07T08:32:49;19.45;;;7.13;;
23179;SDS011;11758;45.756;11.432;2022-12-07T08:35:15;8.10;;;5.63;;
23179;SDS011;11758;45.756;11.432;2022-12-07T08:37:41;10.00;;;5.50;;
23179;SDS011;11758;45.756;11.432;2022-12-07T08:40:08;8.05;;;5.60;;
23179;SDS011;11758;45.756;11.432;2022-12-07T08:42:35;5.97;;;4.63;;
23179;SDS011;11758;45.756;11.432;2022-12-07T08:45:06;9.00;;;6.22;;
23179;SDS011;11758;45.756;11.432;2022-12-07T08:47:33;8.70;;;5.40;;
23179;SDS011;11758;45.756;11.432;2022-12-07T08:49:59;5.33;;;4.73;;
23179;SDS011;11758;45.756;11.432;2022-12-07T08:52:36;8.27;;;4.80;;
23179;SDS011;11758;45.756;11.432;2022-12-07T08:55:03;10.98;;;5.95;;
23179;SDS011;11758;45.756;11.432;2022-12-07T08:57:30;7.45;;;6.05;;
23179;SDS011;11758;45.756;11.432;2022-12-07T08:59:58;10.93;;;6.82;;
23179;SDS011;11758;45.756;11.432;2022-12-07T09:02:24;9.23;;;6.80;;
23179;SDS011;11758;45.756;11.432;2022-12-07T09:04:51;13.27;;;5.50;;
23179;SDS011;11758;45.756;11.432;2022-12-07T09:07:17;9.82;;;6.63;;
23179;SDS011;11758;45.756;11.432;2022-12-07T09:09:43;12.23;;;5.22;;
23179;SDS011;11758;45.756;11.432;2022-12-07T09:12:09;8.68;;;4.93;;
23179;SDS011;11758;45.756;11.432;2022-12-07T09:14:35;4.97;;;4.43;;
23179;SDS011;11758;45.756;11.432;2022-12-07T09:17:05;6.28;;;4.68;;
23179;SDS011;11758;45.756;11.432;2022-12-07T09:19:32;8.90;;;5.13;;
23179;SDS011;11758;45.756;11.432;2022-12-07T09:21:58;7.50;;;5.95;;
23179;SDS011;11758;45.756;11.432;2022-12-07T09:24:24;7.80;;;5.47;;
23179;SDS011;11758;45.756;11.432;2022-12-07T09:26:50;6.78;;;5.00;;
23179;SDS011;11758;45.756;11.432;2022-12-07T09:29:16;7.30;;;5.30;;
23179;SDS011;11758;45.756;11.432;2022-12-07T09:31:42;9.02;;;4.88;;
23179;SDS011;11758;45.756;11.432;2022-12-07T09:34:08;6.00;;;4.65;;
23179;SDS011;11758;45.756;11.432;2022-12-07T09:36:35;8.52;;;5.38;;
23179;SDS011;11758;45.756;11.432;2022-12-07T09:39:01;5.95;;;4.40;;
23179;SDS011;11758;45.756;11.432;2022-12-07T09:41:29;8.48;;;4.28;;
23179;SDS011;11758;45.756;11.432;2022-12-07T09:44:06;6.77;;;4.27;;
23179;SDS011;11758;45.756;11.432;2022-12-07T09:46:36;9.27;;;5.63;;
23179;SDS011;11758;45.756;11.432;2022-12-07T09:49:02;4.40;;;4.00;;
23179;SDS011;11758;45.756;11.432;2022-12-07T09:51:29;4.13;;;3.60;;
23179;SDS011;11758;45.756;11.432;2022-12-07T09:53:56;4.05;;;3.65;;
23179;SDS011;11758;45.756;11.432;2022-12-07T09:56:23;6.18;;;4.07;;
23179;SDS011;11758;45.756;11.432;2022-12-07T09:58:51;4.07;;;2.53;;
23179;SDS011;11758;45.756;11.432;2022-12-07T10:01:30;3.80;;;3.10;;
23179;SDS011;11758;45.756;11.432;2022-12-07T10:04:14;3.88;;;3.17;;
23179;SDS011;11758;45.756;11.432;2022-12-07T10:06:41;4.10;;;3.80;;
23179;SDS011;11758;45.756;11.432;2022-12-07T10:09:13;4.53;;;4.13;;
23179;SDS011;11758;45.756;11.432;2022-12-07T10:14:24;3.63;;;3.33;;
23179;SDS011;11758;45.756;11.432;2022-12-07T10:16:52;2.90;;;2.55;;
23179;SDS011;11758;45.756;11.432;2022-12-07T10:19:20;5.10;;;2.55;;
23179;SDS011;11758;45.756;11.432;2022-12-07T10:21:59;2.95;;;2.75;;
23179;SDS011;11758;45.756;11.432;2022-12-07T10:24:26;9.25;;;3.28;;
23179;SDS011;11758;45.756;11.432;2022-12-07T10:26:52;3.42;;;3.13;;
23179;SDS011;11758;45.756;11.432;2022-12-07T10:32:30;4.75;;;4.35;;
23179;SDS011;11758;45.756;11.432;2022-12-07T10:37:42;9.20;;;5.00;;
23179;SDS011;11758;45.756;11.432;2022-12-07T10:40:52;4.93;;;3.97;;
23179;SDS011;11758;45.756;11.432;2022-12-07T10:43:15;5.35;;;4.82;;
23179;SDS011;11758;45.756;11.432;2022-12-07T10:48:30;3.30;;;3.10;;
23179;SDS011;11758;45.756;11.432;2022-12-07T11:07:05;3.97;;;3.72;;
23179;SDS011;11758;45.756;11.432;2022-12-07T11:14:45;4.47;;;3.90;;
23179;SDS011;11758;45.756;11.432;2022-12-07T11:17:26;7.72;;;3.80;;
23179;SDS011;11758;45.756;11.432;2022-12-07T11:28:01;16.08;;;6.85;;
23179;SDS011;11758;45.756;11.432;2022-12-07T11:30:52;14.30;;;6.18;;
23179;SDS011;11758;45.756;11.432;2022-12-07T11:38:17;11.32;;;6.82;;
23179;SDS011;11758;45.756;11.432;2022-12-07T11:40:50;10.07;;;6.05;;
23179;SDS011;11758;45.756;11.432;2022-12-07T11:43:30;8.00;;;5.38;;
23179;SDS011;11758;45.756;11.432;2022-12-07T11:48:37;7.93;;;4.78;;
23179;SDS011;11758;45.756;11.432;2022-12-07T11:51:04;8.63;;;4.88;;
23179;SDS011;11758;45.756;11.432;2022-12-07T11:53:37;8.27;;;4.20;;
23179;SDS011;11758;45.756;11.432;2022-12-07T11:56:08;7.00;;;4.15;;
23179;SDS011;11758;45.756;11.432;2022-12-07T12:03:47;10.05;;;5.07;;
23179;SDS011;11758;45.756;11.432;2022-12-07T12:06:15;8.05;;;4.88;;
23179;SDS011;11758;45.756;11.432;2022-12-07T12:09:02;20.52;;;7.13;;
23179;SDS011;11758;45.756;11.432;2022-12-07T12:17:13;7.70;;;5.65;;
23179;SDS011;11758;45.756;11.432;2022-12-07T12:20:00;7.60;;;5.50;;
23179;SDS011;11758;45.756;11.432;2022-12-07T12:22:36;7.50;;;5.22;;
23179;SDS011;11758;45.756;11.432;2022-12-07T12:25:19;8.45;;;6.10;;
23179;SDS011;11758;45.756;11.432;2022-12-07T12:27:47;6.32;;;5.00;;
23179;SDS011;11758;45.756;11.432;2022-12-07T12:33:14;8.80;;;6.45;;
23179;SDS011;11758;45.756;11.432;2022-12-07T12:35:42;9.05;;;5.72;;
23179;SDS011;11758;45.756;11.432;2022-12-07T12:40:54;9.90;;;6.38;;
23179;SDS011;11758;45.756;11.432;2022-12-07T12:48:52;7.38;;;5.78;;
23179;SDS011;11758;45.756;11.432;2022-12-07T12:51:38;5.80;;;5.13;;
23179;SDS011;11758;45.756;11.432;2022-12-07T12:54:05;6.80;;;5.13;;
23179;SDS011;11758;45.756;11.432;2022-12-07T12:56:46;6.38;;;5.25;;
23179;SDS011;11758;45.756;11.432;2022-12-07T13:01:47;9.65;;;6.75;;
23179;SDS011;11758;45.756;11.432;2022-12-07T13:04:57;5.07;;;4.63;;
23179;SDS011;11758;45.756;11.432;2022-12-07T13:07:04;4.97;;;4.57;;
23179;SDS011;11758;45.756;11.432;2022-12-07T13:09:31;4.97;;;4.47;;
23179;SDS011;11758;45.756;11.432;2022-12-07T13:12:04;7.68;;;5.43;;
23179;SDS011;11758;45.756;11.432;2022-12-07T13:17:10;8.98;;;5.47;;
23179;SDS011;11758;45.756;11.432;2022-12-07T13:24:57;6.95;;;6.05;;
23179;SDS011;11758;45.756;11.432;2022-12-07T13:27:26;9.13;;;5.72;;
23179;SDS011;11758;45.756;11.432;2022-12-07T13:29:53;7.43;;;5.90;;
23179;SDS011;11758;45.756;11.432;2022-12-07T13:32:28;8.15;;;5.70;;
23179;SDS011;11758;45.756;11.432;2022-12-07T13:34:55;7.05;;;5.93;;
23179;SDS011;11758;45.756;11.432;2022-12-07T13:39:55;5.68;;;5.13;;
23179;SDS011;11758;45.756;11.432;2022-12-07T13:44:52;7.78;;;5.75;;
23179;SDS011;11758;45.756;11.432;2022-12-07T13:47:20;5.20;;;4.70;;
23179;SDS011;11758;45.756;11.432;2022-12-07T13:49:53;5.82;;;5.13;;
23179;SDS011;11758;45.756;11.432;2022-12-07T13:52:27;5.97;;;4.60;;
23179;SDS011;11758;45.756;11.432;2022-12-07T13:55:00;5.40;;;4.72;;
23179;SDS011;11758;45.756;11.432;2022-12-07T13:57:28;7.68;;;4.93;;
23179;SDS011;11758;45.756;11.432;2022-12-07T13:59:55;5.72;;;5.22;;
23179;SDS011;11758;45.756;11.432;2022-12-07T14:02:32;7.50;;;5.38;;
23179;SDS011;11758;45.756;11.432;2022-12-07T14:05:10;8.38;;;6.25;;
23179;SDS011;11758;45.756;11.432;2022-12-07T14:07:52;7.82;;;5.40;;
23179;SDS011;11758;45.756;11.432;2022-12-07T14:10:27;7.03;;;5.45;;
23179;SDS011;11758;45.756;11.432;2022-12-07T14:12:54;6.95;;;4.60;;
23179;SDS011;11758;45.756;11.432;2022-12-07T14:15:21;5.13;;;4.63;;
23179;SDS011;11758;45.756;11.432;2022-12-07T14:17:51;5.18;;;4.75;;
23179;SDS011;11758;45.756;11.432;2022-12-07T14:20:34;9.13;;;5.32;;
23179;SDS011;11758;45.756;11.432;2022-12-07T14:23:01;5.97;;;5.05;;
23179;SDS011;11758;45.756;11.432;2022-12-07T14:25:50;10.23;;;5.20;;
23179;SDS011;11758;45.756;11.432;2022-12-07T14:28:27;7.00;;;5.47;;
23179;SDS011;11758;45.756;11.432;2022-12-07T14:30:54;5.63;;;4.45;;
23179;SDS011;11758;45.756;11.432;2022-12-07T14:33:20;4.72;;;4.30;;
23179;SDS011;11758;45.756;11.432;2022-12-07T14:35:47;5.57;;;5.00;;
23179;SDS011;11758;45.756;11.432;2022-12-07T14:38:14;5.53;;;4.78;;
23179;SDS011;11758;45.756;11.432;2022-12-07T14:40:40;7.60;;;4.57;;
23179;SDS011;11758;45.756;11.432;2022-12-07T14:43:11;6.90;;;5.05;;
23179;SDS011;11758;45.756;11.432;2022-12-07T14:45:38;5.32;;;4.72;;
23179;SDS011;11758;45.756;11.432;2022-12-07T14:48:07;6.18;;;4.65;;
23179;SDS011;11758;45.756;11.432;2022-12-07T14:50:37;7.18;;;5.57;;
23179;SDS011;11758;45.756;11.432;2022-12-07T14:53:10;8.90;;;5.90;;
23179;SDS011;11758;45.756;11.432;2022-12-07T14:55:38;23.27;;;13.38;;
23179;SDS011;11758;45.756;11.432;2022-12-07T14:58:04;14.30;;;9.20;;
23179;SDS011;11758;45.756;11.432;2022-12-07T15:00:30;10.23;;;6.70;;
23179;SDS011;11758;45.756;11.432;2022-12-07T15:02:58;9.43;;;6.82;;
23179;SDS011;11758;45.756;11.432;2022-12-07T15:05:24;16.65;;;9.38;;
23179;SDS011;11758;45.756;11.432;2022-12-07T15:07:55;14.05;;;8.18;;
23179;SDS011;11758;45.756;11.432;2022-12-07T15:10:26;13.38;;;8.48;;
23179;SDS011;11758;45.756;11.432;2022-12-07T15:12:57;15.48;;;8.38;;
23179;SDS011;11758;45.756;11.432;2022-12-07T15:15:48;10.02;;;6.95;;
23179;SDS011;11758;45.756;11.432;2022-12-07T15:18:16;5.25;;;4.75;;
23179;SDS011;11758;45.756;11.432;2022-12-07T15:20:44;8.77;;;4.78;;
23179;SDS011;11758;45.756;11.432;2022-12-07T15:23:11;5.25;;;4.20;;
23179;SDS011;11758;45.756;11.432;2022-12-07T15:25:40;6.75;;;5.07;;
23179;SDS011;11758;45.756;11.432;2022-12-07T15:28:06;4.40;;;4.00;;
23179;SDS011;11758;45.756;11.432;2022-12-07T15:30:32;5.97;;;4.75;;
23179;SDS011;11758;45.756;11.432;2022-12-07T15:32:58;5.97;;;5.47;;
23179;SDS011;11758;45.756;11.432;2022-12-07T15:35:25;7.70;;;5.03;;
23179;SDS011;11758;45.756;11.432;2022-12-07T15:37:51;6.80;;;4.45;;
23179;SDS011;11758;45.756;11.432;2022-12-07T15:40:17;4.70;;;4.30;;
23179;SDS011;11758;45.756;11.432;2022-12-07T15:42:44;5.72;;;4.65;;
23179;SDS011;11758;45.756;11.432;2022-12-07T15:45:10;29.98;;;14.93;;
23179;SDS011;11758;45.756;11.432;2022-12-07T15:47:39;34.85;;;14.95;;
23179;SDS011;11758;45.756;11.432;2022-12-07T15:50:07;41.45;;;20.10;;
23179;SDS011;11758;45.756;11.432;2022-12-07T15:52:33;62.30;;;21.33;;
23179;SDS011;11758;45.756;11.432;2022-12-07T15:55:00;49.85;;;22.48;;
23179;SDS011;11758;45.756;11.432;2022-12-07T15:57:28;28.10;;;12.80;;
23179;SDS011;11758;45.756;11.432;2022-12-07T15:59:54;19.50;;;11.25;;
23179;SDS011;11758;45.756;11.432;2022-12-07T16:02:20;15.73;;;10.30;;
23179;SDS011;11758;45.756;11.432;2022-12-07T16:04:47;15.45;;;8.40;;
23179;SDS011;11758;45.756;11.432;2022-12-07T16:07:13;15.18;;;9.73;;
23179;SDS011;11758;45.756;11.432;2022-12-07T16:09:41;14.52;;;8.10;;
23179;SDS011;11758;45.756;11.432;2022-12-07T16:12:08;13.85;;;9.50;;
23179;SDS011;11758;45.756;11.432;2022-12-07T16:14:37;11.30;;;7.18;;
23179;SDS011;11758;45.756;11.432;2022-12-07T16:17:03;10.13;;;7.30;;
23179;SDS011;11758;45.756;11.432;2022-12-07T16:19:30;14.18;;;7.93;;
23179;SDS011;11758;45.756;11.432;2022-12-07T16:21:56;13.27;;;8.68;;
23179;SDS011;11758;45.756;11.432;2022-12-07T16:24:23;10.68;;;7.60;;
23179;SDS011;11758;45.756;11.432;2022-12-07T16:27:01;16.77;;;8.93;;
23179;SDS011;11758;45.756;11.432;2022-12-07T16:29:37;15.07;;;8.93;;
23179;SDS011;11758;45.756;11.432;2022-12-07T16:32:32;13.25;;;6.57;;
23179;SDS011;11758;45.756;11.432;2022-12-07T16:34:58;10.23;;;7.55;;
23179;SDS011;11758;45.756;11.432;2022-12-07T16:37:24;17.02;;;10.68;;
23179;SDS011;11758;45.756;11.432;2022-12-07T16:39:50;17.05;;;10.25;;
23179;SDS011;11758;45.756;11.432;2022-12-07T16:42:20;19.33;;;9.73;;
23179;SDS011;11758;45.756;11.432;2022-12-07T16:44:48;18.90;;;9.77;;
23179;SDS011;11758;45.756;11.432;2022-12-07T16:47:14;24.90;;;13.07;;
23179;SDS011;11758;45.756;11.432;2022-12-07T16:49:40;21.45;;;9.60;;